sensor_id;sensor_type;location;lat;lon;timestamp;temperature;humidity
15997;DHT22;8103;51.340;12.326;2022-10-16T00:01:40;15.80;99.90
15997;DHT22;8103;51.340;12.326;2022-10-16T00:04:09;15.80;99.90
15997;DHT22;8103;51.340;12.326;2022-10-16T00:06:37;15.80;99.90
15997;DHT22;8103;51.340;12.326;2022-10-16T00:09:05;15.80;99.90
15997;DHT22;8103;51.340;12.326;2022-10-16T00:11:35;15.80;99.90
15997;DHT22;8103;51.340;12.326;2022-10-16T00:14:09;15.80;99.90
15997;DHT22;8103;51.340;12.326;2022-10-16T00:16:39;15.80;99.90
15997;DHT22;8103;51.340;12.326;2022-10-16T00:19:06;15.80;99.90
15997;DHT22;8103;51.340;12.326;2022-10-16T00:21:34;15.70;99.90
15997;DHT22;8103;51.340;12.326;2022-10-16T00:24:06;15.70;99.90
15997;DHT22;8103;51.340;12.326;2022-10-16T00:26:36;15.70;99.90
15997;DHT22;8103;51.340;12.326;2022-10-16T00:29:04;15.80;99.90
15997;DHT22;8103;51.340;12.326;2022-10-16T00:31:32;15.80;99.90
15997;DHT22;8103;51.340;12.326;2022-10-16T00:34:00;15.80;99.90
15997;DHT22;8103;51.340;12.326;2022-10-16T00:36:31;15.90;99.90
15997;DHT22;8103;51.340;12.326;2022-10-16T00:38:58;15.90;99.90
15997;DHT22;8103;51.340;12.326;2022-10-16T00:41:32;15.90;99.90
15997;DHT22;8103;51.340;12.326;2022-10-16T00:44:02;15.90;99.90
15997;DHT22;8103;51.340;12.326;2022-10-16T00:46:50;15.90;99.90
15997;DHT22;8103;51.340;12.326;2022-10-16T00:49:18;15.90;99.90
15997;DHT22;8103;51.340;12.326;2022-10-16T00:51:52;15.90;99.90
15997;DHT22;8103;51.340;12.326;2022-10-16T00:54:29;15.80;99.90
15997;DHT22;8103;51.340;12.326;2022-10-16T00:57:00;15.80;99.90
15997;DHT22;8103;51.340;12.326;2022-10-16T00:59:37;15.80;99.90
15997;DHT22;8103;51.340;12.326;2022-10-16T01:02:09;15.70;99.90
15997;DHT22;8103;51.340;12.326;2022-10-16T01:04:42;15.70;99.90
15997;DHT22;8103;51.340;12.326;2022-10-16T01:07:28;15.70;99.90
15997;DHT22;8103;51.340;12.326;2022-10-16T01:10:14;15.70;99.90
15997;DHT22;8103;51.340;12.326;2022-10-16T01:12:59;15.70;99.90
15997;DHT22;8103;51.340;12.326;2022-10-16T01:15:51;15.70;99.90
15997;DHT22;8103;51.340;12.326;2022-10-16T01:18:39;15.70;99.90
15997;DHT22;8103;51.340;12.326;2022-10-16T01:21:28;15.70;99.90
15997;DHT22;8103;51.340;12.326;2022-10-16T01:24:27;15.70;99.90
15997;DHT22;8103;51.340;12.326;2022-10-16T01:30:13;15.70;99.90
15997;DHT22;8103;51.340;12.326;2022-10-16T01:32:56;15.70;99.90
15997;DHT22;8103;51.340;12.326;2022-10-16T01:35:55;15.60;99.90
15997;DHT22;8103;51.340;12.326;2022-10-16T01:38:35;15.60;99.90
15997;DHT22;8103;51.340;12.326;2022-10-16T01:41:21;15.60;99.90
15997;DHT22;8103;51.340;12.326;2022-10-16T01:43:58;15.50;99.90
15997;DHT22;8103;51.340;12.326;2022-10-16T01:46:36;15.60;99.90
15997;DHT22;8103;51.340;12.326;2022-10-16T01:49:06;15.50;99.90
15997;DHT22;8103;51.340;12.326;2022-10-16T01:51:37;15.50;99.90
15997;DHT22;8103;51.340;12.326;2022-10-16T01:54:06;15.50;99.90
15997;DHT22;8103;51.340;12.326;2022-10-16T01:56:36;15.50;99.90
15997;DHT22;8103;51.340;12.326;2022-10-16T01:59:09;15.50;99.90
15997;DHT22;8103;51.340;12.326;2022-10-16T02:01:45;15.50;99.90
15997;DHT22;8103;51.340;12.326;2022-10-16T02:04:28;15.50;99.90
15997;DHT22;8103;51.340;12.326;2022-10-16T02:06:58;15.50;99.90
15997;DHT22;8103;51.340;12.326;2022-10-16T02:09:26;15.40;99.90
15997;DHT22;8103;51.340;12.326;2022-10-16T02:11:55;15.40;99.90
15997;DHT22;8103;51.340;12.326;2022-10-16T02:14:26;15.40;99.90
15997;DHT22;8103;51.340;12.326;2022-10-16T02:16:53;15.50;99.90
15997;DHT22;8103;51.340;12.326;2022-10-16T02:19:21;15.50;99.90
15997;DHT22;8103;51.340;12.326;2022-10-16T02:21:59;15.40;99.90
15997;DHT22;8103;51.340;12.326;2022-10-16T02:24:43;15.50;99.90
15997;DHT22;8103;51.340;12.326;2022-10-16T02:27:35;15.40;99.90
15997;DHT22;8103;51.340;12.326;2022-10-16T02:30:33;15.40;99.90
15997;DHT22;8103;51.340;12.326;2022-10-16T02:33:07;15.40;99.90
15997;DHT22;8103;51.340;12.326;2022-10-16T02:35:36;15.40;99.90
15997;DHT22;8103;51.340;12.326;2022-10-16T02:38:05;15.30;99.90
15997;DHT22;8103;51.340;12.326;2022-10-16T02:40:34;15.30;99.90
15997;DHT22;8103;51.340;12.326;2022-10-16T02:43:04;15.30;99.90
15997;DHT22;8103;51.340;12.326;2022-10-16T02:45:32;15.30;99.90
15997;DHT22;8103;51.340;12.326;2022-10-16T02:47:59;15.30;99.90
15997;DHT22;8103;51.340;12.326;2022-10-16T02:50:26;15.30;99.90
15997;DHT22;8103;51.340;12.326;2022-10-16T02:52:53;15.30;99.90
15997;DHT22;8103;51.340;12.326;2022-10-16T02:55:21;15.30;99.90
15997;DHT22;8103;51.340;12.326;2022-10-16T02:57:48;15.20;99.90
15997;DHT22;8103;51.340;12.326;2022-10-16T03:00:17;15.20;99.90
15997;DHT22;8103;51.340;12.326;2022-10-16T03:02:44;15.20;99.90
15997;DHT22;8103;51.340;12.326;2022-10-16T03:05:12;15.20;99.90
15997;DHT22;8103;51.340;12.326;2022-10-16T03:07:40;15.10;99.90
15997;DHT22;8103;51.340;12.326;2022-10-16T03:10:07;15.10;99.90
15997;DHT22;8103;51.340;12.326;2022-10-16T03:12:34;15.10;99.90
15997;DHT22;8103;51.340;12.326;2022-10-16T03:15:02;15.10;99.90
15997;DHT22;8103;51.340;12.326;2022-10-16T03:17:31;15.10;99.90
15997;DHT22;8103;51.340;12.326;2022-10-16T03:19:59;15.10;99.90
15997;DHT22;8103;51.340;12.326;2022-10-16T03:22:26;15.00;99.90
15997;DHT22;8103;51.340;12.326;2022-10-16T03:24:53;15.10;99.90
15997;DHT22;8103;51.340;12.326;2022-10-16T03:27:20;15.00;99.90
15997;DHT22;8103;51.340;12.326;2022-10-16T03:29:47;15.00;99.90
15997;DHT22;8103;51.340;12.326;2022-10-16T03:32:14;15.00;99.90
15997;DHT22;8103;51.340;12.326;2022-10-16T03:34:41;15.00;99.90
15997;DHT22;8103;51.340;12.326;2022-10-16T03:37:08;15.00;99.90
15997;DHT22;8103;51.340;12.326;2022-10-16T03:39:35;15.00;99.90
15997;DHT22;8103;51.340;12.326;2022-10-16T03:42:02;15.00;99.90
15997;DHT22;8103;51.340;12.326;2022-10-16T03:44:30;15.00;99.90
15997;DHT22;8103;51.340;12.326;2022-10-16T03:46:57;15.00;99.90
15997;DHT22;8103;51.340;12.326;2022-10-16T03:49:24;15.00;99.90
15997;DHT22;8103;51.340;12.326;2022-10-16T03:51:51;15.00;99.90
15997;DHT22;8103;51.340;12.326;2022-10-16T03:54:18;15.00;99.90
15997;DHT22;8103;51.340;12.326;2022-10-16T03:56:45;15.00;99.90
15997;DHT22;8103;51.340;12.326;2022-10-16T03:59:11;15.00;99.90
15997;DHT22;8103;51.340;12.326;2022-10-16T04:01:38;15.00;99.90
15997;DHT22;8103;51.340;12.326;2022-10-16T04:04:06;15.00;99.90
15997;DHT22;8103;51.340;12.326;2022-10-16T04:06:32;15.00;99.90
15997;DHT22;8103;51.340;12.326;2022-10-16T04:09:00;15.00;99.90
15997;DHT22;8103;51.340;12.326;2022-10-16T04:11:26;15.00;99.90
15997;DHT22;8103;51.340;12.326;2022-10-16T04:13:54;15.00;99.90
15997;DHT22;8103;51.340;12.326;2022-10-16T04:16:21;15.00;99.90
15997;DHT22;8103;51.340;12.326;2022-10-16T04:18:48;14.90;99.90
15997;DHT22;8103;51.340;12.326;2022-10-16T04:21:15;15.00;99.90
15997;DHT22;8103;51.340;12.326;2022-10-16T04:23:42;14.90;99.90
15997;DHT22;8103;51.340;12.326;2022-10-16T04:26:09;14.90;99.90
15997;DHT22;8103;51.340;12.326;2022-10-16T04:28:37;14.90;99.90
15997;DHT22;8103;51.340;12.326;2022-10-16T04:31:05;14.90;99.90
15997;DHT22;8103;51.340;12.326;2022-10-16T04:33:33;14.90;99.90
15997;DHT22;8103;51.340;12.326;2022-10-16T04:36:01;14.90;99.90
15997;DHT22;8103;51.340;12.326;2022-10-16T04:38:30;14.90;99.90
15997;DHT22;8103;51.340;12.326;2022-10-16T04:40:57;14.80;99.90
15997;DHT22;8103;51.340;12.326;2022-10-16T04:43:24;14.80;99.90
15997;DHT22;8103;51.340;12.326;2022-10-16T04:45:52;14.80;99.90
15997;DHT22;8103;51.340;12.326;2022-10-16T04:48:21;14.80;99.90
15997;DHT22;8103;51.340;12.326;2022-10-16T04:50:48;14.80;99.90
15997;DHT22;8103;51.340;12.326;2022-10-16T04:53:18;14.90;99.90
15997;DHT22;8103;51.340;12.326;2022-10-16T04:55:45;14.90;99.90
15997;DHT22;8103;51.340;12.326;2022-10-16T04:58:12;14.90;99.90
15997;DHT22;8103;51.340;12.326;2022-10-16T05:00:39;14.90;99.90
15997;DHT22;8103;51.340;12.326;2022-10-16T05:03:06;14.90;99.90
15997;DHT22;8103;51.340;12.326;2022-10-16T05:05:35;15.00;99.90
15997;DHT22;8103;51.340;12.326;2022-10-16T05:08:03;15.00;99.90
15997;DHT22;8103;51.340;12.326;2022-10-16T05:10:30;15.00;99.90
15997;DHT22;8103;51.340;12.326;2022-10-16T05:12:57;15.00;99.90
15997;DHT22;8103;51.340;12.326;2022-10-16T05:15:25;15.00;99.90
15997;DHT22;8103;51.340;12.326;2022-10-16T05:17:53;15.00;99.90
15997;DHT22;8103;51.340;12.326;2022-10-16T05:20:21;15.00;99.90
15997;DHT22;8103;51.340;12.326;2022-10-16T05:22:49;15.00;99.90
15997;DHT22;8103;51.340;12.326;2022-10-16T05:25:16;15.00;99.90
15997;DHT22;8103;51.340;12.326;2022-10-16T05:27:46;14.90;99.90
15997;DHT22;8103;51.340;12.326;2022-10-16T05:30:15;14.90;99.90
15997;DHT22;8103;51.340;12.326;2022-10-16T05:32:48;15.00;99.90
15997;DHT22;8103;51.340;12.326;2022-10-16T05:35:17;14.90;99.90
15997;DHT22;8103;51.340;12.326;2022-10-16T05:37:45;14.90;99.90
15997;DHT22;8103;51.340;12.326;2022-10-16T05:40:13;14.90;99.90
15997;DHT22;8103;51.340;12.326;2022-10-16T05:42:40;14.90;99.90
15997;DHT22;8103;51.340;12.326;2022-10-16T05:45:09;14.90;99.90
15997;DHT22;8103;51.340;12.326;2022-10-16T05:47:38;14.80;99.90
15997;DHT22;8103;51.340;12.326;2022-10-16T05:50:06;14.90;99.90
15997;DHT22;8103;51.340;12.326;2022-10-16T05:52:34;14.90;99.90
15997;DHT22;8103;51.340;12.326;2022-10-16T05:55:01;14.90;99.90
15997;DHT22;8103;51.340;12.326;2022-10-16T05:57:28;14.90;99.90
15997;DHT22;8103;51.340;12.326;2022-10-16T05:59:55;14.90;99.90
15997;DHT22;8103;51.340;12.326;2022-10-16T06:02:22;14.90;99.90
15997;DHT22;8103;51.340;12.326;2022-10-16T06:04:51;15.00;99.90
15997;DHT22;8103;51.340;12.326;2022-10-16T06:07:20;15.10;99.90
15997;DHT22;8103;51.340;12.326;2022-10-16T06:09:49;15.10;99.90
15997;DHT22;8103;51.340;12.326;2022-10-16T06:12:17;15.20;99.90
15997;DHT22;8103;51.340;12.326;2022-10-16T06:14:46;15.30;99.90
15997;DHT22;8103;51.340;12.326;2022-10-16T06:17:33;15.40;99.90
15997;DHT22;8103;51.340;12.326;2022-10-16T06:20:00;15.40;99.90
15997;DHT22;8103;51.340;12.326;2022-10-16T06:22:27;15.50;99.90
15997;DHT22;8103;51.340;12.326;2022-10-16T06:24:54;15.50;99.90
15997;DHT22;8103;51.340;12.326;2022-10-16T06:27:22;15.50;99.90
15997;DHT22;8103;51.340;12.326;2022-10-16T06:29:49;15.60;99.90
15997;DHT22;8103;51.340;12.326;2022-10-16T06:32:16;15.60;99.90
15997;DHT22;8103;51.340;12.326;2022-10-16T06:34:43;15.70;99.90
15997;DHT22;8103;51.340;12.326;2022-10-16T06:37:10;15.70;99.90
15997;DHT22;8103;51.340;12.326;2022-10-16T06:39:37;15.80;99.90
15997;DHT22;8103;51.340;12.326;2022-10-16T06:42:04;15.80;99.90
15997;DHT22;8103;51.340;12.326;2022-10-16T06:44:31;15.90;99.90
15997;DHT22;8103;51.340;12.326;2022-10-16T06:46:58;15.90;99.90
15997;DHT22;8103;51.340;12.326;2022-10-16T06:49:25;15.90;99.90
15997;DHT22;8103;51.340;12.326;2022-10-16T06:51:52;15.90;99.90
15997;DHT22;8103;51.340;12.326;2022-10-16T06:54:19;15.90;99.90
15997;DHT22;8103;51.340;12.326;2022-10-16T06:56:46;15.90;99.90
15997;DHT22;8103;51.340;12.326;2022-10-16T06:59:15;16.00;99.90
15997;DHT22;8103;51.340;12.326;2022-10-16T07:01:41;16.00;99.90
15997;DHT22;8103;51.340;12.326;2022-10-16T07:04:08;16.00;99.90
15997;DHT22;8103;51.340;12.326;2022-10-16T07:06:35;16.00;99.90
15997;DHT22;8103;51.340;12.326;2022-10-16T07:09:05;16.10;99.90
15997;DHT22;8103;51.340;12.326;2022-10-16T07:11:34;16.10;99.90
15997;DHT22;8103;51.340;12.326;2022-10-16T07:14:01;16.20;99.90
15997;DHT22;8103;51.340;12.326;2022-10-16T07:16:32;16.30;99.90
15997;DHT22;8103;51.340;12.326;2022-10-16T07:19:00;16.40;99.90
15997;DHT22;8103;51.340;12.326;2022-10-16T07:21:32;16.40;99.90
15997;DHT22;8103;51.340;12.326;2022-10-16T07:24:11;16.50;99.90
15997;DHT22;8103;51.340;12.326;2022-10-16T07:26:40;16.50;99.90
15997;DHT22;8103;51.340;12.326;2022-10-16T07:29:17;16.60;99.90
15997;DHT22;8103;51.340;12.326;2022-10-16T07:31:47;16.80;99.90
15997;DHT22;8103;51.340;12.326;2022-10-16T07:34:16;16.90;99.90
15997;DHT22;8103;51.340;12.326;2022-10-16T07:36:47;17.10;99.90
15997;DHT22;8103;51.340;12.326;2022-10-16T07:39:15;17.10;99.90
15997;DHT22;8103;51.340;12.326;2022-10-16T07:41:42;17.10;99.90
15997;DHT22;8103;51.340;12.326;2022-10-16T07:44:09;17.20;99.90
15997;DHT22;8103;51.340;12.326;2022-10-16T07:46:36;17.30;99.90
15997;DHT22;8103;51.340;12.326;2022-10-16T07:49:03;17.30;99.90
15997;DHT22;8103;51.340;12.326;2022-10-16T07:51:30;17.50;99.90
15997;DHT22;8103;51.340;12.326;2022-10-16T07:53:57;17.60;99.90
15997;DHT22;8103;51.340;12.326;2022-10-16T07:56:25;17.70;99.90
15997;DHT22;8103;51.340;12.326;2022-10-16T07:58:52;17.90;99.90
15997;DHT22;8103;51.340;12.326;2022-10-16T08:01:20;18.10;99.90
15997;DHT22;8103;51.340;12.326;2022-10-16T08:03:49;18.20;99.90
15997;DHT22;8103;51.340;12.326;2022-10-16T08:06:19;18.40;99.90
15997;DHT22;8103;51.340;12.326;2022-10-16T08:08:49;18.60;99.90
15997;DHT22;8103;51.340;12.326;2022-10-16T08:11:15;18.70;99.90
15997;DHT22;8103;51.340;12.326;2022-10-16T08:13:43;18.90;99.90
15997;DHT22;8103;51.340;12.326;2022-10-16T08:16:10;19.00;99.90
15997;DHT22;8103;51.340;12.326;2022-10-16T08:18:39;19.00;99.90
15997;DHT22;8103;51.340;12.326;2022-10-16T08:21:10;19.20;99.90
15997;DHT22;8103;51.340;12.326;2022-10-16T08:23:43;19.40;99.90
15997;DHT22;8103;51.340;12.326;2022-10-16T08:26:11;19.50;99.90
15997;DHT22;8103;51.340;12.326;2022-10-16T08:28:39;19.40;99.90
15997;DHT22;8103;51.340;12.326;2022-10-16T08:31:12;19.30;99.90
15997;DHT22;8103;51.340;12.326;2022-10-16T08:33:42;19.10;99.90
15997;DHT22;8103;51.340;12.326;2022-10-16T08:36:12;19.00;99.90
15997;DHT22;8103;51.340;12.326;2022-10-16T08:38:39;19.00;99.90
15997;DHT22;8103;51.340;12.326;2022-10-16T08:50:31;19.20;99.90
15997;DHT22;8103;51.340;12.326;2022-10-16T08:53:04;19.20;99.90
15997;DHT22;8103;51.340;12.326;2022-10-16T08:55:44;19.40;99.90
15997;DHT22;8103;51.340;12.326;2022-10-16T08:58:18;19.80;99.90
15997;DHT22;8103;51.340;12.326;2022-10-16T09:00:51;20.10;99.90
15997;DHT22;8103;51.340;12.326;2022-10-16T09:03:31;20.30;99.90
15997;DHT22;8103;51.340;12.326;2022-10-16T09:13:00;20.80;99.90
15997;DHT22;8103;51.340;12.326;2022-10-16T09:15:39;21.50;99.40
15997;DHT22;8103;51.340;12.326;2022-10-16T09:18:26;23.20;97.60
15997;DHT22;8103;51.340;12.326;2022-10-16T09:23:35;23.20;94.50
15997;DHT22;8103;51.340;12.326;2022-10-16T09:26:05;23.40;93.50
15997;DHT22;8103;51.340;12.326;2022-10-16T09:28:36;23.50;92.30
15997;DHT22;8103;51.340;12.326;2022-10-16T09:31:03;23.30;92.60
15997;DHT22;8103;51.340;12.326;2022-10-16T09:33:33;23.40;92.80
15997;DHT22;8103;51.340;12.326;2022-10-16T09:36:05;23.50;91.90
15997;DHT22;8103;51.340;12.326;2022-10-16T09:38:34;23.30;92.00
15997;DHT22;8103;51.340;12.326;2022-10-16T09:41:23;23.50;92.40
15997;DHT22;8103;51.340;12.326;2022-10-16T09:43:56;24.10;90.90
15997;DHT22;8103;51.340;12.326;2022-10-16T09:46:26;24.90;88.10
15997;DHT22;8103;51.340;12.326;2022-10-16T09:48:58;25.40;83.20
15997;DHT22;8103;51.340;12.326;2022-10-16T09:51:31;25.10;83.30
15997;DHT22;8103;51.340;12.326;2022-10-16T09:56:36;24.40;85.60
15997;DHT22;8103;51.340;12.326;2022-10-16T09:59:12;23.70;87.90
15997;DHT22;8103;51.340;12.326;2022-10-16T10:01:54;22.90;91.10
15997;DHT22;8103;51.340;12.326;2022-10-16T10:04:23;22.40;92.50
15997;DHT22;8103;51.340;12.326;2022-10-16T10:07:04;22.00;93.70
15997;DHT22;8103;51.340;12.326;2022-10-16T10:09:37;22.00;94.30
15997;DHT22;8103;51.340;12.326;2022-10-16T10:12:14;22.50;93.90
15997;DHT22;8103;51.340;12.326;2022-10-16T10:14:53;22.80;92.70
15997;DHT22;8103;51.340;12.326;2022-10-16T10:17:25;22.70;92.50
15997;DHT22;8103;51.340;12.326;2022-10-16T10:20:18;22.50;93.10
15997;DHT22;8103;51.340;12.326;2022-10-16T10:22:52;22.20;93.60
15997;DHT22;8103;51.340;12.326;2022-10-16T10:25:49;22.00;94.30
15997;DHT22;8103;51.340;12.326;2022-10-16T10:28:31;21.70;95.00
15997;DHT22;8103;51.340;12.326;2022-10-16T10:37:34;21.80;95.50
15997;DHT22;8103;51.340;12.326;2022-10-16T10:42:51;21.80;95.70
15997;DHT22;8103;51.340;12.326;2022-10-16T10:45:38;21.60;95.90
15997;DHT22;8103;51.340;12.326;2022-10-16T10:48:34;21.40;96.30
15997;DHT22;8103;51.340;12.326;2022-10-16T10:51:13;21.20;96.70
15997;DHT22;8103;51.340;12.326;2022-10-16T10:57:58;21.00;97.60
15997;DHT22;8103;51.340;12.326;2022-10-16T11:06:48;21.10;97.60
15997;DHT22;8103;51.340;12.326;2022-10-16T11:09:28;21.10;97.70
15997;DHT22;8103;51.340;12.326;2022-10-16T11:12:09;21.10;97.90
15997;DHT22;8103;51.340;12.326;2022-10-16T11:15:16;21.00;98.00
15997;DHT22;8103;51.340;12.326;2022-10-16T11:20:39;21.00;98.30
15997;DHT22;8103;51.340;12.326;2022-10-16T11:23:16;21.10;98.30
15997;DHT22;8103;51.340;12.326;2022-10-16T11:25:51;21.10;98.30
15997;DHT22;8103;51.340;12.326;2022-10-16T11:28:27;21.10;98.20
15997;DHT22;8103;51.340;12.326;2022-10-16T11:31:11;21.10;98.10
15997;DHT22;8103;51.340;12.326;2022-10-16T11:33:51;21.20;98.00
15997;DHT22;8103;51.340;12.326;2022-10-16T11:42:13;21.30;97.80
15997;DHT22;8103;51.340;12.326;2022-10-16T11:45:33;21.40;97.60
15997;DHT22;8103;51.340;12.326;2022-10-16T11:51:29;21.40;97.60
15997;DHT22;8103;51.340;12.326;2022-10-16T11:54:32;21.40;97.60
15997;DHT22;8103;51.340;12.326;2022-10-16T11:57:20;21.50;97.40
15997;DHT22;8103;51.340;12.326;2022-10-16T11:59:57;21.60;97.30
15997;DHT22;8103;51.340;12.326;2022-10-16T12:02:48;21.70;97.20
15997;DHT22;8103;51.340;12.326;2022-10-16T12:08:26;21.70;97.00
15997;DHT22;8103;51.340;12.326;2022-10-16T12:11:19;21.80;96.90
15997;DHT22;8103;51.340;12.326;2022-10-16T12:16:57;21.60;97.10
15997;DHT22;8103;51.340;12.326;2022-10-16T12:19:32;21.70;97.20
15997;DHT22;8103;51.340;12.326;2022-10-16T12:22:01;21.70;97.10
15997;DHT22;8103;51.340;12.326;2022-10-16T12:24:35;21.80;97.20
15997;DHT22;8103;51.340;12.326;2022-10-16T12:30:03;21.70;97.30
15997;DHT22;8103;51.340;12.326;2022-10-16T12:32:35;21.70;97.30
15997;DHT22;8103;51.340;12.326;2022-10-16T12:35:20;21.70;97.40
15997;DHT22;8103;51.340;12.326;2022-10-16T12:37:53;21.70;97.50
15997;DHT22;8103;51.340;12.326;2022-10-16T12:40:29;21.90;97.50
15997;DHT22;8103;51.340;12.326;2022-10-16T12:43:10;22.10;97.10
15997;DHT22;8103;51.340;12.326;2022-10-16T12:48:38;23.40;93.70
15997;DHT22;8103;51.340;12.326;2022-10-16T12:51:34;23.10;93.50
15997;DHT22;8103;51.340;12.326;2022-10-16T12:54:10;22.70;94.00
15997;DHT22;8103;51.340;12.326;2022-10-16T13:06:39;21.50;96.60
15997;DHT22;8103;51.340;12.326;2022-10-16T13:09:41;22.20;96.20
15997;DHT22;8103;51.340;12.326;2022-10-16T13:15:35;23.50;93.40
15997;DHT22;8103;51.340;12.326;2022-10-16T13:18:22;24.60;91.50
15997;DHT22;8103;51.340;12.326;2022-10-16T13:21:16;25.90;87.50
15997;DHT22;8103;51.340;12.326;2022-10-16T13:27:38;31.30;62.00
15997;DHT22;8103;51.340;12.326;2022-10-16T13:30:29;33.00;54.60
15997;DHT22;8103;51.340;12.326;2022-10-16T13:33:00;33.00;52.70
15997;DHT22;8103;51.340;12.326;2022-10-16T13:35:34;32.00;53.00
15997;DHT22;8103;51.340;12.326;2022-10-16T13:38:15;31.00;55.00
15997;DHT22;8103;51.340;12.326;2022-10-16T13:40:54;30.50;56.50
15997;DHT22;8103;51.340;12.326;2022-10-16T13:43:38;30.80;55.50
15997;DHT22;8103;51.340;12.326;2022-10-16T13:46:24;31.10;55.60
15997;DHT22;8103;51.340;12.326;2022-10-16T13:51:32;31.20;52.80
15997;DHT22;8103;51.340;12.326;2022-10-16T13:53:59;30.00;55.30
15997;DHT22;8103;51.340;12.326;2022-10-16T13:56:31;28.70;58.40
15997;DHT22;8103;51.340;12.326;2022-10-16T13:59:05;27.50;61.70
15997;DHT22;8103;51.340;12.326;2022-10-16T14:01:35;26.30;66.40
15997;DHT22;8103;51.340;12.326;2022-10-16T14:04:10;25.30;69.60
15997;DHT22;8103;51.340;12.326;2022-10-16T14:06:45;24.40;74.40
15997;DHT22;8103;51.340;12.326;2022-10-16T14:09:22;23.70;78.20
15997;DHT22;8103;51.340;12.326;2022-10-16T14:12:09;23.20;81.40
15997;DHT22;8103;51.340;12.326;2022-10-16T14:14:46;22.70;85.70
15997;DHT22;8103;51.340;12.326;2022-10-16T14:17:22;22.40;88.10
15997;DHT22;8103;51.340;12.326;2022-10-16T14:19:54;22.10;90.20
15997;DHT22;8103;51.340;12.326;2022-10-16T14:22:34;21.90;91.40
15997;DHT22;8103;51.340;12.326;2022-10-16T14:28:18;21.60;93.20
15997;DHT22;8103;51.340;12.326;2022-10-16T14:30:59;21.50;93.80
15997;DHT22;8103;51.340;12.326;2022-10-16T14:38:37;21.70;94.00
15997;DHT22;8103;51.340;12.326;2022-10-16T14:41:06;21.80;93.90
15997;DHT22;8103;51.340;12.326;2022-10-16T14:43:39;21.80;93.90
15997;DHT22;8103;51.340;12.326;2022-10-16T14:46:17;21.70;94.10
15997;DHT22;8103;51.340;12.326;2022-10-16T14:49:21;21.70;94.40
15997;DHT22;8103;51.340;12.326;2022-10-16T14:51:48;21.60;94.60
15997;DHT22;8103;51.340;12.326;2022-10-16T14:54:17;21.50;94.90
15997;DHT22;8103;51.340;12.326;2022-10-16T14:56:54;21.50;95.00
15997;DHT22;8103;51.340;12.326;2022-10-16T14:59:41;21.50;95.20
15997;DHT22;8103;51.340;12.326;2022-10-16T15:04:49;21.30;95.80
15997;DHT22;8103;51.340;12.326;2022-10-16T15:07:16;21.30;96.00
15997;DHT22;8103;51.340;12.326;2022-10-16T15:09:43;21.20;96.30
15997;DHT22;8103;51.340;12.326;2022-10-16T15:12:12;21.20;96.40
15997;DHT22;8103;51.340;12.326;2022-10-16T15:14:39;21.10;96.70
15997;DHT22;8103;51.340;12.326;2022-10-16T15:17:09;21.00;97.10
15997;DHT22;8103;51.340;12.326;2022-10-16T15:19:37;20.80;97.50
15997;DHT22;8103;51.340;12.326;2022-10-16T15:22:04;20.70;97.90
15997;DHT22;8103;51.340;12.326;2022-10-16T15:24:31;20.50;98.70
15997;DHT22;8103;51.340;12.326;2022-10-16T15:26:58;20.40;99.10
15997;DHT22;8103;51.340;12.326;2022-10-16T15:29:25;20.20;99.80
15997;DHT22;8103;51.340;12.326;2022-10-16T15:31:52;20.10;99.90
15997;DHT22;8103;51.340;12.326;2022-10-16T15:34:19;19.90;99.90
15997;DHT22;8103;51.340;12.326;2022-10-16T15:36:46;19.90;99.90
15997;DHT22;8103;51.340;12.326;2022-10-16T15:39:19;19.80;99.90
15997;DHT22;8103;51.340;12.326;2022-10-16T15:41:47;19.80;99.90
15997;DHT22;8103;51.340;12.326;2022-10-16T15:44:17;19.70;99.90
15997;DHT22;8103;51.340;12.326;2022-10-16T15:46:45;19.70;99.90
15997;DHT22;8103;51.340;12.326;2022-10-16T15:49:13;19.70;99.90
15997;DHT22;8103;51.340;12.326;2022-10-16T15:51:41;19.70;99.90
15997;DHT22;8103;51.340;12.326;2022-10-16T15:54:09;19.70;99.90
15997;DHT22;8103;51.340;12.326;2022-10-16T15:56:36;19.70;99.90
15997;DHT22;8103;51.340;12.326;2022-10-16T15:59:04;19.70;99.90
15997;DHT22;8103;51.340;12.326;2022-10-16T16:01:35;19.60;99.90
15997;DHT22;8103;51.340;12.326;2022-10-16T16:04:03;19.60;99.90
15997;DHT22;8103;51.340;12.326;2022-10-16T16:06:36;19.50;99.90
15997;DHT22;8103;51.340;12.326;2022-10-16T16:09:05;19.50;99.90
15997;DHT22;8103;51.340;12.326;2022-10-16T16:11:32;19.40;99.90
15997;DHT22;8103;51.340;12.326;2022-10-16T16:14:05;19.30;99.90
15997;DHT22;8103;51.340;12.326;2022-10-16T16:16:33;19.30;99.90
15997;DHT22;8103;51.340;12.326;2022-10-16T16:19:07;19.30;99.90
15997;DHT22;8103;51.340;12.326;2022-10-16T16:21:37;19.30;99.90
15997;DHT22;8103;51.340;12.326;2022-10-16T16:24:04;19.20;99.90
15997;DHT22;8103;51.340;12.326;2022-10-16T16:26:35;19.10;99.90
15997;DHT22;8103;51.340;12.326;2022-10-16T16:29:06;19.10;99.90
15997;DHT22;8103;51.340;12.326;2022-10-16T16:31:33;19.00;99.90
15997;DHT22;8103;51.340;12.326;2022-10-16T16:34:01;19.00;99.90
15997;DHT22;8103;51.340;12.326;2022-10-16T16:36:28;18.90;99.90
15997;DHT22;8103;51.340;12.326;2022-10-16T16:38:56;18.90;99.90
15997;DHT22;8103;51.340;12.326;2022-10-16T16:41:26;18.90;99.90
15997;DHT22;8103;51.340;12.326;2022-10-16T16:43:55;18.80;99.90
15997;DHT22;8103;51.340;12.326;2022-10-16T16:46:31;18.80;99.90
15997;DHT22;8103;51.340;12.326;2022-10-16T16:49:00;18.70;99.90
15997;DHT22;8103;51.340;12.326;2022-10-16T16:51:28;18.70;99.90
15997;DHT22;8103;51.340;12.326;2022-10-16T16:53:56;18.60;99.90
15997;DHT22;8103;51.340;12.326;2022-10-16T16:56:24;18.50;99.90
15997;DHT22;8103;51.340;12.326;2022-10-16T16:58:55;18.50;99.90
15997;DHT22;8103;51.340;12.326;2022-10-16T17:01:25;18.40;99.90
15997;DHT22;8103;51.340;12.326;2022-10-16T17:03:55;18.50;99.90
15997;DHT22;8103;51.340;12.326;2022-10-16T17:06:25;18.50;99.90
15997;DHT22;8103;51.340;12.326;2022-10-16T17:08:56;18.50;99.90
15997;DHT22;8103;51.340;12.326;2022-10-16T17:11:25;18.60;99.90
15997;DHT22;8103;51.340;12.326;2022-10-16T17:13:54;18.50;99.90
15997;DHT22;8103;51.340;12.326;2022-10-16T17:16:31;18.60;99.90
15997;DHT22;8103;51.340;12.326;2022-10-16T17:19:07;18.60;99.90
15997;DHT22;8103;51.340;12.326;2022-10-16T17:21:38;18.60;99.90
15997;DHT22;8103;51.340;12.326;2022-10-16T17:24:05;18.60;99.90
15997;DHT22;8103;51.340;12.326;2022-10-16T17:26:33;18.60;99.90
15997;DHT22;8103;51.340;12.326;2022-10-16T17:29:04;18.70;99.90
15997;DHT22;8103;51.340;12.326;2022-10-16T17:31:35;18.60;99.90
15997;DHT22;8103;51.340;12.326;2022-10-16T17:34:05;18.60;99.90
15997;DHT22;8103;51.340;12.326;2022-10-16T17:36:36;18.60;99.90
15997;DHT22;8103;51.340;12.326;2022-10-16T17:39:06;18.60;99.90
15997;DHT22;8103;51.340;12.326;2022-10-16T17:41:35;18.60;99.90